Slide Mountain Weather observations

Data are for 10 minute period ending at time listed.
 Day   Time   Solar   Ave.   Ave.  Ave.  Vector  Max.    Baro.  
  of    of     Rad.   Air    Rel.  Wind   Wind   Wind   Press.  
Year   Day            Temp.  Hum.  Speed  Dir.   Gust           
2026   (PST)  Kw/m2    F      %     mph   deg.    mph     mb.   
-----------------------------------------------------------------
 121    8:40   0.58   40.0    39   13.3    96     21.1    715.1 
 121    8:50   0.60   40.3    39   14.3    98     18.0    715.2 
 121    9:00   0.63   40.3    39   13.3   101     21.3    715.1 
 121    9:10   0.65   40.5    39   15.4   100     23.2    715.2 
 121    9:20   0.67   40.6    39   15.0    98     22.1    715.2 
 121    9:30   0.70   40.6    39   17.7   100     26.5    715.2 
 121    9:40   0.71   40.5    41   17.4    99     26.2    715.3 
 121    9:50   0.73   40.9    37   17.7   105     25.0    715.4 
 121   10:00   0.75   40.6    37   17.7   107     23.1    715.4 
 121   10:10   0.77   42.0    37   16.9   104     28.5    715.4 
 121   10:20   0.78   40.7    37   14.5   100     24.6    715.5 
 121   10:30   0.80   40.8    38   20.9    96     29.8    715.4 
 121   10:40   0.81   41.0    38   19.3    85     30.1    715.5 
 121   10:50   0.81   41.7    37   14.8   105     28.6    715.4 
 121   11:00   0.83   42.0    36   17.8    99     28.0    715.4 
 121   11:10   0.82   41.6    36   16.3    89     28.3    715.4 
 121   11:20   0.84   41.3    35   15.7    81     32.3    715.4 
 121   11:30   0.86   43.4    33   12.7    99     18.0    715.4 
 121   11:40   0.86   43.5    34    9.8   107     18.4    715.3 
 121   11:50   0.83   44.4    32   15.6   104     21.7    715.2 
 121   12:00   0.85   43.7    30   13.1   107     19.3    715.3 
 121   12:10   0.87   43.6    30   12.1   106     22.2    715.3 
 121   12:20   0.87   43.5    29   16.4    98     28.7    715.2 
 121   12:30   0.84   43.2    30   11.2    95     19.2    715.3 
 121   12:40   0.81   44.7    30   13.8   105     24.6    715.2 
 121   12:50   0.82   44.7    26   13.8   114     24.0    715.1 
 121   13:00   0.78   44.7    26   11.1   106     19.5    715.2 
 121   13:10   0.81   45.5    27   11.0   110     18.6    715.1 
 121   13:20   0.80   46.0    28   13.8    99     21.4    715.1 
 121   13:30   0.79   44.8    26   12.0   113     18.1    715.1 
 121   13:40   0.76   45.8    26   17.6   108     26.9    715.0 
 121   13:50   0.77   45.1    24   14.8   102     23.2    715.0 
 121   14:00   0.74   44.9    24   17.1   100     23.5    714.9 
 121   14:10   0.73   44.8    24   14.8    88     21.4    714.9 
 121   14:20   0.73   45.5    26   14.9   100     23.2    714.8 
 121   14:30   0.67   45.5    25   18.5   100     26.0    714.6 
 121   14:40   0.67   45.2    26   12.8    92     22.5    714.6 
 121   14:50   0.66   46.7    26   10.1   105     16.6    714.5 
 121   15:00   0.65   47.6    25    9.4   118     17.8    714.5 
 121   15:10   0.62   47.5    24    6.5   114     17.1    714.4 
 121   15:20   0.57   47.1    26    8.5   106     18.9    714.3 
 121   15:30   0.52   46.5    26    8.5   114     14.1    714.3 
 121   15:40   0.54   47.1    26    8.7   120     15.5    714.2 
 121   15:50   0.51   49.0    25    6.4   122     11.2    714.2 
 121   16:00   0.48   49.0    24    5.0   121     10.8    714.2 
 121   16:10   0.46   47.8    25    4.6   114      8.8    714.2 
 121   16:20   0.38   47.6    26    6.1   124     11.1    714.1 
 121   16:30   0.31   49.1    24    1.1   133      7.0    714.1 
 121   16:40   0.22   48.1    24    3.5   136      7.0    714.1 
 121   16:50   0.22   46.5    25    1.3   139      5.5    714.1 
 121   17:00   0.15   46.3    27    4.3   126      9.5    714.1 
 121   17:10   0.12   45.8    26    2.3   133      8.6    714.1 
 121   17:20   0.14   45.9    26    0.2   135      1.4    714.0 
 121   17:30   0.12   45.8    26    0.1   135      0.7    714.0 
 121   17:40   0.14   46.7    26    0.0   135      0.1    714.0 
 121   17:50   0.10   46.8    26    0.1   135      0.7    714.0 
 121   18:00   0.08   46.6    26    0.0   196      0.7    713.9 
 121   18:10   0.06   46.2    27   -0.0     4      0.0    713.9 
 121   18:20   0.04   45.5    29    0.0     0      0.0    713.9 
 121   18:30   0.03   44.7    32    0.0   184      0.3    713.9 
 121   18:40   0.01   43.9    31    0.0     0      0.0    713.9 
 121   18:50   0.01   43.7    31    0.0     0      0.0    713.9 
 121   19:00   0.00   43.3    32    1.4   228      3.0    713.9 
 121   19:10   0.00   42.9    32    0.8   241      2.3    713.9 
 121   19:20   0.00   42.9    32    0.1   241      0.8    713.9 
 121   19:30   0.00   42.7    32    0.0   241      0.3    713.9 
 121   19:40   0.00   42.3    33    3.4   221      5.2    714.0 
 121   19:50   0.00   42.1    37    3.3   232      5.0    714.2 
 121   20:00   0.00   41.9    35    2.4   244      5.0    714.2 
 121   20:10   0.00   41.7    37    1.6   184      3.5    714.3 
 121   20:20   0.00   41.8    42    4.6   175      9.4    714.3 
 121   20:30   0.00   41.6    41    5.8   170      7.9    714.3 
 121   20:40   0.00   41.6    35    8.9   151     15.1    714.4 
 121   20:50   0.00   41.6    31   11.6   134     14.2    714.4 
 121   21:00   0.00   41.3    30   10.6   115     14.2    714.4 
 121   21:10   0.00   41.4    29    8.8   114     11.5    714.4 
 121   21:20   0.00   41.3    29    9.6   116     13.7    714.4 
 121   21:30   0.00   41.1    28   10.3   113     15.1    714.4 
 121   21:40   0.00   41.4    27   12.2   112     15.2    714.4 
 121   21:50   0.00   41.5    26   11.3   114     13.4    714.4 
 121   22:00   0.00   41.3    27    8.9   113     10.8    714.4 
 121   22:10   0.00   41.2    27    9.8   113     12.6    714.3 
 121   22:20   0.00   41.2    27   11.8   113     15.6    714.2 
 121   22:30   0.00   41.0    27   11.2   111     14.4    714.2 
 121   22:40   0.00   40.9    27   11.8   114     15.5    714.2 
 121   22:50   0.00   41.0    27   12.4   114     15.6    714.2 
 121   23:00   0.00   40.8    28   10.9   116     12.7    714.2 
 121   23:10   0.00   40.8    27   11.1   115     16.2    714.2 
 121   23:20   0.00   40.9    27   13.3   116     18.0    714.1 
 121   23:30   0.00   40.7    27   11.8   119     16.7    714.2 
 121   23:40   0.00   40.8    27   14.7   127     22.0    714.1 
 121   23:50   0.00   40.8    28   15.2   126     21.7    714.0 
 122    0:00   0.00   40.7    31   15.3   124     21.1    713.9 
 122    0:10   0.00   40.5    36   15.4   122     18.2    713.8 
 122    0:20   0.00   40.4    44   16.5   124     21.1    713.8 
 122    0:30   0.00   40.5    36   17.3   125     21.6    713.7 
 122    0:40   0.00   40.5    36   17.1   126     21.0    713.6 
 122    0:50   0.00   40.7    41   20.5   132     22.4    713.5 
 122    1:00   0.00   40.8    43   18.9   134     21.1    713.5 
 122    1:10   0.00   41.0    44   19.3   139     21.3    713.4 
 122    1:20   0.00   40.7    47   18.9   134     20.3    713.3 
 122    1:30   0.00   40.6    47   18.4   134     20.0    713.2 
 122    1:40   0.00   40.8    47   18.6   137     20.5    713.1 
 122    1:50   0.00   40.6    41   16.1   130     19.6    713.1 
 122    2:00   0.00   40.5    34   16.6   135     19.1    713.0 
 122    2:10   0.00   41.1    42   19.1   141     21.8    712.9 
 122    2:20   0.00   41.3    45   18.0   149     20.7    713.0 
 122    2:30   0.00   41.2    44   16.6   153     18.8    713.0 
 122    2:40   0.00   41.1    41   15.2   156     18.1    713.0 
 122    2:50   0.00   40.8    39   11.3   168     14.2    713.0 
 122    3:00   0.00   40.3    42   10.2   180     13.1    713.0 
 122    3:10   0.00   39.9    44    8.0   194     10.2    713.0 
 122    3:20   0.00   39.1    51    8.0   201     10.9    712.9 
 122    3:30   0.00   38.8    55    6.1   205      9.8    712.9 
 122    3:40   0.00   38.7    58    7.2   210     12.2    712.9 
 122    3:50   0.00   38.0    69    7.4   212     10.8    712.8 
 122    4:00   0.00   37.5    76    9.4   202     11.3    712.7 
 122    4:10   0.00   37.9    75   10.4   200     16.6    712.7 
 122    4:20   0.00   38.3    72   11.3   201     15.9    712.6 
 122    4:30   0.00   38.2    71   12.7   208     19.2    712.6 
 122    4:40   0.00   38.3    66   15.4   210     25.9    712.5 
 122    4:50   0.00   37.9    67   13.8   203     19.6    712.5 
 122    5:00   0.00   37.6    69   14.0   208     17.8    712.5 
 122    5:10   0.01   37.5    70   14.2   213     18.7    712.4 
 122    5:20   0.02   37.4    70   15.0   213     19.1    712.4 
 122    5:30   0.02   37.4    72   15.7   217     21.1    712.4 
 122    5:40   0.03   37.5    72   16.2   216     20.2    712.5 
 122    5:50   0.05   37.6    72   16.2   215     19.4    712.5 
 122    6:00   0.07   37.5    72   14.2   214     17.7    712.5 
 122    6:10   0.09   37.9    66   14.8   205     18.7    712.6 
 122    6:20   0.09   38.1    63   15.0   208     18.4    712.6 
 122    6:30   0.11   38.4    57   14.9   211     18.9    712.7 
 122    6:40   0.11   38.4    59   15.8   216     19.8    712.7 
 122    6:50   0.15   38.5    61   16.7   206     21.0    712.8 
 122    7:00   0.21   38.8    57   19.7   215     27.2    712.9 
 122    7:10   0.22   39.2    55   17.9   209     24.2    713.0 
 122    7:20   0.23   39.4    52   17.2   209     23.8    713.0 
 122    7:30   0.37   40.1    51   18.9   212     28.2    713.0 
 122    7:40   0.23   40.1    52   18.3   210     33.7    713.0 
 122    7:50   0.20   39.8    51   18.9   209     31.6    713.1 
 122    8:00   0.28   40.0    50   18.7   211     28.6    713.1 
 122    8:10   0.35   40.4    50   20.5   210     27.4    713.1 
 122    8:20   0.36   40.9    50   15.9   211     24.5    713.1 
 122    8:30   0.34   41.4    50   13.1   207     21.7    713.2 

Return to Slide Mountain graphs page.


Western Regional Climate Center,wrcc@dri.edu